createdAt,value
2022-08-16T00:01:56.376Z,94933.44
2022-08-16T00:04:27.950Z,94929.66
2022-08-16T00:06:56.809Z,94931.16
2022-08-16T00:09:26.173Z,94928.06
2022-08-16T00:11:55.584Z,94937.56
2022-08-16T00:14:29.107Z,94940.19
2022-08-16T00:17:15.497Z,94934.25
2022-08-16T00:19:46.837Z,94937.13
2022-08-16T00:22:24.860Z,94942.66
2022-08-16T00:24:55.061Z,94933.81
2022-08-16T00:27:23.440Z,94929.34
2022-08-16T00:30:08.820Z,94939.22
2022-08-16T00:32:42.584Z,94931.97
2022-08-16T00:35:16.109Z,94934.84
2022-08-16T00:37:57.587Z,94930.81
2022-08-16T00:40:34.254Z,94929.91
2022-08-16T00:43:04.480Z,94933.00
2022-08-16T00:45:58.498Z,94921.31
2022-08-16T00:48:31.764Z,94934.16
2022-08-16T00:51:01.145Z,94927.41
2022-08-16T00:53:30.653Z,94929.16
2022-08-16T00:56:05.200Z,94926.41
2022-08-16T00:58:35.942Z,94934.19
2022-08-16T01:01:08.353Z,94931.56
2022-08-16T01:03:41.609Z,94929.38
2022-08-16T01:06:32.571Z,94926.41
2022-08-16T01:09:00.432Z,94942.28
2022-08-16T01:11:30.005Z,94930.50
2022-08-16T01:14:03.803Z,94929.72
2022-08-16T01:16:32.232Z,94925.28
2022-08-16T01:19:04.576Z,94920.25
2022-08-16T01:21:39.802Z,94920.69
2022-08-16T01:24:52.760Z,94923.91
2022-08-16T01:27:17.402Z,94914.28
2022-08-16T01:29:58.181Z,94924.69
2022-08-16T01:32:33.615Z,94927.31
2022-08-16T01:35:04.607Z,94933.06
2022-08-16T01:37:40.532Z,94920.56
2022-08-16T01:40:13.610Z,94924.91
2022-08-16T01:42:44.663Z,94926.41
2022-08-16T01:45:19.669Z,94912.69
2022-08-16T01:47:51.166Z,94920.69
2022-08-16T01:51:07.908Z,94921.81
2022-08-16T01:53:11.058Z,94922.25
2022-08-16T01:55:42.777Z,94922.63
2022-08-16T01:58:22.445Z,94918.28
2022-08-16T02:00:50.286Z,94909.69
2022-08-16T02:03:18.764Z,94916.13
2022-08-16T02:05:52.501Z,94902.84
2022-08-16T02:08:32.990Z,94902.72
2022-08-16T02:11:05.069Z,94906.63
2022-08-16T02:13:33.138Z,94893.84
2022-08-16T02:16:01.252Z,94898.53
2022-08-16T02:18:29.289Z,94895.44
2022-08-16T02:20:57.146Z,94902.78
2022-08-16T02:23:27.269Z,94898.09
2022-08-16T02:25:59.522Z,94900.53
2022-08-16T02:28:29.365Z,94899.50
2022-08-16T02:31:00.538Z,94898.25
2022-08-16T02:33:43.510Z,94906.94
2022-08-16T02:36:50.725Z,94902.13
2022-08-16T02:39:06.934Z,94898.69
2022-08-16T02:41:37.359Z,94901.91
2022-08-16T02:44:11.001Z,94899.41
2022-08-16T02:46:41.730Z,94893.00
2022-08-16T02:49:19.450Z,94888.63
2022-08-16T02:51:48.228Z,94894.94
2022-08-16T02:54:18.030Z,94898.22
2022-08-16T02:56:47.804Z,94895.03
2022-08-16T02:59:17.181Z,94900.06
2022-08-16T03:01:47.047Z,94904.06
2022-08-16T03:04:39.588Z,94908.84
2022-08-16T03:07:06.186Z,94907.13
2022-08-16T03:09:34.092Z,94900.25
2022-08-16T03:12:03.809Z,94906.28
2022-08-16T03:14:33.891Z,94909.03
2022-08-16T03:17:02.293Z,94909.97
2022-08-16T03:19:47.023Z,94906.16
2022-08-16T03:22:27.839Z,94908.00
2022-08-16T03:24:58.390Z,94916.44
2022-08-16T03:27:31.261Z,94915.75
2022-08-16T03:30:16.396Z,94918.38
2022-08-16T03:32:47.404Z,94915.50
2022-08-16T03:35:17.415Z,94927.00
2022-08-16T03:38:01.634Z,94928.13
2022-08-16T03:40:33.873Z,94928.69
2022-08-16T03:43:20.366Z,94921.34
2022-08-16T03:45:52.931Z,94926.19
2022-08-16T03:48:36.677Z,94928.19
2022-08-16T03:51:08.010Z,94928.56
2022-08-16T03:53:38.103Z,94930.59
2022-08-16T03:56:07.610Z,94920.50
2022-08-16T03:58:45.477Z,94923.22
2022-08-16T04:01:17.535Z,94924.09
2022-08-16T04:03:45.308Z,94926.38
2022-08-16T04:06:13.867Z,94937.63
2022-08-16T04:08:43.636Z,94932.91
2022-08-16T04:11:16.559Z,94935.81
2022-08-16T04:13:59.456Z,94939.41
2022-08-16T04:16:35.239Z,94929.78
2022-08-16T04:19:04.360Z,94926.75
2022-08-16T04:21:33.287Z,94925.16
2022-08-16T04:24:03.513Z,94925.69
2022-08-16T04:26:35.733Z,94927.00
2022-08-16T04:29:16.728Z,94931.66
2022-08-16T04:31:56.740Z,94941.03
2022-08-16T04:34:27.830Z,94934.81
2022-08-16T04:36:56.666Z,94937.34
2022-08-16T04:39:25.197Z,94937.03
2022-08-16T04:42:11.359Z,94940.25
2022-08-16T04:44:53.435Z,94944.91
2022-08-16T04:47:31.454Z,94937.19
2022-08-16T04:50:00.950Z,94946.66
2022-08-16T04:52:33.622Z,94953.59
2022-08-16T04:55:06.156Z,94953.91
2022-08-16T04:57:34.156Z,94954.41
2022-08-16T05:00:30.888Z,94943.31
2022-08-16T05:02:54.903Z,94940.44
2022-08-16T05:05:24.441Z,94953.28
2022-08-16T05:07:59.466Z,94957.47
2022-08-16T05:10:28.419Z,94958.72
2022-08-16T05:12:57.569Z,94960.13
2022-08-16T05:15:25.570Z,94951.44
2022-08-16T05:17:58.610Z,94949.03
2022-08-16T05:20:38.531Z,94951.34
2022-08-16T05:23:14.167Z,94951.34
2022-08-16T05:25:48.194Z,94959.97
2022-08-16T05:28:16.888Z,94952.25
2022-08-16T05:30:44.795Z,94956.13
2022-08-16T05:33:16.475Z,94962.25
2022-08-16T05:35:44.780Z,94960.34
2022-08-16T05:38:32.681Z,94968.19
2022-08-16T05:41:09.452Z,94966.41
2022-08-16T05:43:43.329Z,94961.38
2022-08-16T05:46:30.611Z,94969.13
2022-08-16T05:49:08.699Z,94970.25
2022-08-16T05:51:40.242Z,94962.84
2022-08-16T05:54:11.277Z,94963.59
2022-08-16T05:56:39.598Z,94961.47
2022-08-16T05:59:08.508Z,94955.25
2022-08-16T06:01:37.869Z,94963.13
2022-08-16T06:04:12.766Z,94967.78
2022-08-16T06:06:43.357Z,94967.44
2022-08-16T06:09:23.942Z,94964.56
2022-08-16T06:11:51.967Z,94972.41
2022-08-16T06:14:20.723Z,94957.38
2022-08-16T06:16:50.740Z,94967.94
2022-08-16T06:19:20.297Z,94963.53
2022-08-16T06:21:55.322Z,94961.59
2022-08-16T06:24:54.702Z,94965.94
2022-08-16T06:27:11.899Z,94962.94
2022-08-16T06:29:40.859Z,94958.81
2022-08-16T06:32:11.559Z,94962.66
2022-08-16T06:35:02.335Z,94964.75
2022-08-16T06:37:37.317Z,94968.25
2022-08-16T06:40:12.897Z,94960.75
2022-08-16T06:42:47.459Z,94958.03
2022-08-16T06:45:16.279Z,94964.13
2022-08-16T06:47:53.338Z,94966.28
2022-08-16T06:50:28.529Z,94963.38
2022-08-16T06:52:59.732Z,94966.88
2022-08-16T06:55:33.737Z,94968.91
2022-08-16T06:58:08.375Z,94964.19
2022-08-16T07:00:37.529Z,94957.69
2022-08-16T07:03:26.714Z,94960.97
2022-08-16T07:05:57.126Z,94968.41
2022-08-16T07:08:25.102Z,94966.88
2022-08-16T07:10:55.947Z,94963.25
2022-08-16T07:14:03.654Z,94957.97
2022-08-16T07:16:16.713Z,94964.56
2022-08-16T07:18:58.887Z,94954.28
2022-08-16T07:21:46.161Z,94949.31
2022-08-16T07:24:30.262Z,94958.06
2022-08-16T07:27:00.732Z,94957.81
2022-08-16T07:29:31.778Z,94957.31
2022-08-16T07:32:00.769Z,94955.06
2022-08-16T07:34:35.036Z,94953.84
2022-08-16T07:37:09.624Z,94946.22
2022-08-16T07:39:43.388Z,94940.44
2022-08-16T07:42:25.861Z,94943.13
2022-08-16T07:44:57.666Z,94939.84
2022-08-16T07:47:31.897Z,94945.06
2022-08-16T07:50:00.007Z,94950.47
2022-08-16T07:52:34.732Z,94945.03
2022-08-16T07:55:07.737Z,94945.66
2022-08-16T07:57:38.173Z,94937.97
2022-08-16T08:00:26.361Z,94948.03
2022-08-16T08:02:55.570Z,94941.13
2022-08-16T08:05:35.685Z,94954.28
2022-08-16T08:08:11.962Z,94960.31
2022-08-16T08:10:53.963Z,94950.34
2022-08-16T08:13:41.761Z,94952.28
2022-08-16T08:16:18.252Z,94959.47
2022-08-16T08:18:50.164Z,94948.00
2022-08-16T08:21:27.322Z,94955.75
2022-08-16T08:23:57.657Z,94956.25
2022-08-16T08:26:25.979Z,94964.63
2022-08-16T08:28:54.618Z,94959.31
2022-08-16T08:31:29.810Z,94962.44
2022-08-16T08:33:59.939Z,94958.22
2022-08-16T08:36:33.306Z,94959.81
2022-08-16T08:39:03.061Z,94960.41
2022-08-16T08:41:42.435Z,94953.28
2022-08-16T08:44:29.272Z,94950.56
2022-08-16T08:47:01.831Z,94952.16
2022-08-16T08:49:46.449Z,94950.56
2022-08-16T08:52:47.815Z,94947.78
2022-08-16T08:55:12.676Z,94954.25
2022-08-16T08:57:41.822Z,94954.25
2022-08-16T09:00:13.041Z,94949.50
2022-08-16T09:02:42.584Z,94953.56
2022-08-16T09:05:15.421Z,94949.34
2022-08-16T09:08:00.522Z,94953.63
2022-08-16T09:10:31.312Z,94953.69
2022-08-16T09:12:59.658Z,94951.88
2022-08-16T09:15:32.892Z,94946.78
2022-08-16T09:18:25.417Z,94939.72
2022-08-16T09:20:59.694Z,94937.81
2022-08-16T09:23:29.080Z,94943.00
2022-08-16T09:25:58.514Z,94948.19
2022-08-16T09:29:15.408Z,94937.09
2022-08-16T09:31:15.203Z,94948.97
2022-08-16T09:33:44.432Z,94939.88
2022-08-16T09:36:32.765Z,94939.09
2022-08-16T09:39:02.407Z,94935.91
2022-08-16T09:41:32.181Z,94937.44
2022-08-16T09:45:08.981Z,94935.91
2022-08-16T09:46:49.946Z,94931.53
2022-08-16T09:49:20.240Z,94940.66
2022-08-16T09:51:54.473Z,94935.44
2022-08-16T09:54:24.675Z,94933.84
2022-08-16T09:57:01.984Z,94934.13
2022-08-16T09:59:31.211Z,94931.34
2022-08-16T10:02:27.367Z,94928.63
2022-08-16T10:04:55.377Z,94927.78
2022-08-16T10:07:23.293Z,94928.94
2022-08-16T10:09:54.912Z,94924.53
2022-08-16T10:12:44.370Z,94913.00
2022-08-16T10:15:15.174Z,94924.09
2022-08-16T10:17:45.444Z,94912.97
2022-08-16T10:20:29.372Z,94916.22
2022-08-16T10:23:05.453Z,94911.59
2022-08-16T10:27:19.264Z,94913.03
2022-08-16T10:28:30.019Z,94909.06
2022-08-16T10:31:00.320Z,94908.53
2022-08-16T10:33:33.235Z,94919.44
2022-08-16T10:36:03.864Z,94914.63
2022-08-16T10:38:33.148Z,94906.91
2022-08-16T10:41:04.533Z,94898.22
2022-08-16T10:43:33.795Z,94906.41
2022-08-16T10:46:03.365Z,94909.13
2022-08-16T10:48:51.039Z,94904.59
2022-08-16T10:51:19.744Z,94902.50
2022-08-16T10:53:47.513Z,94897.03
2022-08-16T10:56:52.168Z,94908.19
2022-08-16T11:07:45.586Z,94909.00
2022-08-16T11:10:20.398Z,94920.59
2022-08-16T11:12:49.009Z,94912.44
2022-08-16T11:15:22.185Z,94916.94
2022-08-16T11:20:49.307Z,94919.31
2022-08-16T11:23:18.581Z,94924.09
2022-08-16T11:26:16.439Z,94919.25
2022-08-16T11:29:12.549Z,94917.38
2022-08-16T11:31:26.501Z,94910.16
2022-08-16T11:33:55.046Z,94913.53
2022-08-16T11:36:24.773Z,94911.91
2022-08-16T11:38:57.642Z,94907.34
2022-08-16T11:41:26.577Z,94911.53
2022-08-16T11:43:58.623Z,94905.84
2022-08-16T11:46:44.973Z,94899.53
2022-08-16T11:49:14.279Z,94892.75
2022-08-16T11:51:43.951Z,94897.09
2022-08-16T11:54:20.108Z,94898.78
2022-08-16T11:56:53.224Z,94896.44
2022-08-16T11:59:28.856Z,94896.31
2022-08-16T12:02:31.589Z,94887.78
2022-08-16T12:04:47.125Z,94889.06
2022-08-16T12:07:20.521Z,94887.75
2022-08-16T12:09:53.290Z,94890.91
2022-08-16T12:12:23.534Z,94879.56
2022-08-16T12:14:59.484Z,94882.09
2022-08-16T12:17:31.723Z,94876.66
2022-08-16T12:20:00.074Z,94878.88
2022-08-16T12:22:28.254Z,94880.94
2022-08-16T12:24:56.436Z,94872.47
2022-08-16T12:27:25.674Z,94870.75
2022-08-16T12:29:54.183Z,94876.06
2022-08-16T12:32:35.977Z,94881.72
2022-08-16T12:35:10.565Z,94880.66
2022-08-16T12:37:38.813Z,94879.69
2022-08-16T12:40:23.679Z,94870.91
2022-08-16T12:42:54.090Z,94877.94
2022-08-16T12:45:23.975Z,94878.34
2022-08-16T12:48:33.269Z,94878.41
2022-08-16T12:51:01.219Z,94874.75
2022-08-16T12:53:32.001Z,94879.72
2022-08-16T12:56:00.210Z,94878.16
2022-08-16T12:58:49.442Z,94869.31
2022-08-16T13:01:16.190Z,94869.69
2022-08-16T13:03:44.131Z,94868.38
2022-08-16T13:06:13.602Z,94865.31
2022-08-16T13:08:47.725Z,94859.34
2022-08-16T13:11:17.845Z,94855.44
2022-08-16T13:13:45.616Z,94864.00
2022-08-16T13:16:20.047Z,94858.16
2022-08-16T13:18:51.619Z,94852.81
2022-08-16T13:21:23.489Z,94851.72
2022-08-16T13:23:53.448Z,94854.47
2022-08-16T13:26:24.412Z,94854.88
2022-08-16T13:28:54.356Z,94847.19
2022-08-16T13:31:23.870Z,94844.50
2022-08-16T13:33:54.612Z,94847.78
2022-08-16T13:39:17.178Z,94839.97
2022-08-16T13:41:45.278Z,94840.19
2022-08-16T13:44:22.172Z,94835.88
2022-08-16T13:47:09.889Z,94841.81
2022-08-16T13:49:37.638Z,94842.78
2022-08-16T13:52:09.731Z,94836.09
2022-08-16T13:54:37.866Z,94840.06
2022-08-16T13:57:05.924Z,94839.00
2022-08-16T13:59:34.567Z,94836.16
2022-08-16T14:02:04.044Z,94832.91
2022-08-16T14:04:35.293Z,94833.34
2022-08-16T14:07:07.333Z,94830.69
2022-08-16T14:09:37.594Z,94832.97
2022-08-16T14:12:09.715Z,94831.50
2022-08-16T14:14:45.349Z,94832.41
2022-08-16T14:17:14.807Z,94831.03
2022-08-16T14:19:45.264Z,94824.06
2022-08-16T14:22:30.330Z,94834.63
2022-08-16T14:25:03.003Z,94830.16
2022-08-16T14:27:31.882Z,94834.13
2022-08-16T14:30:01.491Z,94825.84
2022-08-16T14:32:33.336Z,94829.38
2022-08-16T14:35:04.264Z,94825.81
2022-08-16T14:37:32.121Z,94827.84
2022-08-16T14:40:03.255Z,94826.66
2022-08-16T14:42:31.713Z,94823.16
2022-08-16T14:45:00.409Z,94817.91
2022-08-16T14:47:34.117Z,94818.28
2022-08-16T14:50:02.989Z,94825.84
2022-08-16T14:55:23.386Z,94829.00
2022-08-16T14:57:52.792Z,94819.84
2022-08-16T15:00:32.727Z,94809.34
2022-08-16T15:03:02.927Z,94821.66
2022-08-16T15:05:32.613Z,94822.03
2022-08-16T15:08:00.568Z,94817.34
2022-08-16T15:10:32.181Z,94816.53
2022-08-16T15:13:01.192Z,94817.03
2022-08-16T15:15:30.610Z,94812.09
2022-08-16T15:18:01.876Z,94820.00
2022-08-16T15:20:33.546Z,94825.25
2022-08-16T15:23:04.848Z,94822.91
2022-08-16T15:25:35.925Z,94817.47
2022-08-16T15:28:23.551Z,94822.94
2022-08-16T15:31:00.894Z,94822.56
2022-08-16T15:33:33.135Z,94823.00
2022-08-16T15:36:02.303Z,94817.41
2022-08-16T15:39:02.554Z,94829.38
2022-08-16T15:42:01.096Z,94817.84
2022-08-16T15:44:38.908Z,94825.31
2022-08-16T15:47:19.518Z,94822.47
2022-08-16T15:49:53.122Z,94823.28
2022-08-16T15:52:29.673Z,94819.31
2022-08-16T15:55:00.164Z,94821.78
2022-08-16T15:57:36.916Z,94820.38
2022-08-16T16:00:14.801Z,94822.16
2022-08-16T16:02:44.456Z,94822.53
2022-08-16T16:05:12.718Z,94815.66
2022-08-16T16:07:56.275Z,94817.00
2022-08-16T16:10:30.038Z,94821.88
2022-08-16T16:13:00.826Z,94821.41
2022-08-16T16:15:33.489Z,94818.56
2022-08-16T16:18:05.256Z,94818.00
2022-08-16T16:20:39.155Z,94813.88
2022-08-16T16:23:11.090Z,94814.84
2022-08-16T16:25:39.742Z,94806.69
2022-08-16T16:28:51.364Z,94807.53
2022-08-16T16:31:04.640Z,94812.34
2022-08-16T16:33:36.862Z,94808.47
2022-08-16T16:36:07.020Z,94801.66
2022-08-16T16:38:35.429Z,94802.41
2022-08-16T16:41:09.361Z,94799.22
2022-08-16T16:43:41.826Z,94803.72
2022-08-16T16:46:41.071Z,94798.75
2022-08-16T16:48:58.558Z,94809.53
2022-08-16T16:51:27.951Z,94803.50
2022-08-16T16:53:57.062Z,94794.75
2022-08-16T16:56:31.409Z,94800.16
2022-08-16T16:59:07.033Z,94800.16
2022-08-16T17:01:59.921Z,94801.03
2022-08-16T17:04:32.666Z,94795.44
2022-08-16T17:07:02.430Z,94799.13
2022-08-16T17:09:30.970Z,94798.78
2022-08-16T17:11:59.499Z,94806.22
2022-08-16T17:14:33.136Z,94801.59
2022-08-16T17:17:06.664Z,94816.97
2022-08-16T17:19:41.324Z,94820.34
2022-08-16T17:22:14.235Z,94823.09
2022-08-16T17:24:45.106Z,94823.13
2022-08-16T17:27:17.714Z,94824.19
2022-08-16T17:29:51.512Z,94825.84
2022-08-16T17:32:44.675Z,94833.59
2022-08-16T17:35:18.315Z,94839.66
2022-08-16T17:38:05.923Z,94835.91
2022-08-16T17:40:55.096Z,94842.53
2022-08-16T17:43:27.366Z,94840.69
2022-08-16T17:46:04.341Z,94853.97
2022-08-16T17:48:35.413Z,94849.38
2022-08-16T17:51:04.268Z,94850.63
2022-08-16T17:53:32.847Z,94856.69
2022-08-16T17:56:01.404Z,94846.81
2022-08-16T17:58:29.154Z,94849.22
2022-08-16T18:00:59.837Z,94857.97
2022-08-16T18:03:40.853Z,94857.19
2022-08-16T18:06:25.370Z,94856.44
2022-08-16T18:09:01.645Z,94854.88
2022-08-16T18:11:33.744Z,94853.28
2022-08-16T18:14:01.732Z,94856.81
2022-08-16T18:16:29.741Z,94856.38
2022-08-16T18:18:59.195Z,94857.50
2022-08-16T18:21:44.758Z,94855.06
2022-08-16T18:24:14.855Z,94858.06
2022-08-16T18:26:42.721Z,94868.63
2022-08-16T18:29:10.920Z,94859.50
2022-08-16T18:31:39.659Z,94873.16
2022-08-16T18:34:09.540Z,94867.50
2022-08-16T18:36:38.160Z,94870.09
2022-08-16T18:39:06.429Z,94870.34
2022-08-16T18:41:37.046Z,94867.78
2022-08-16T18:44:25.265Z,94872.75
2022-08-16T18:46:55.667Z,94878.16
2022-08-16T18:49:25.028Z,94881.06
2022-08-16T18:51:57.852Z,94895.47
2022-08-16T18:54:26.237Z,94893.78
2022-08-16T18:56:57.451Z,94903.50
2022-08-16T18:59:28.175Z,94899.34
2022-08-16T19:02:00.291Z,94903.84
2022-08-16T19:04:57.186Z,94902.94
2022-08-16T19:07:29.647Z,94909.44
2022-08-16T19:10:00.415Z,94901.81
2022-08-16T19:12:38.437Z,94899.66
2022-08-16T19:15:13.618Z,94906.91
2022-08-16T19:17:42.625Z,94906.00
2022-08-16T19:20:13.671Z,94910.59
2022-08-16T19:25:47.090Z,94912.50
2022-08-16T19:28:50.115Z,94915.13
2022-08-16T19:31:08.855Z,94923.63
2022-08-16T19:33:37.022Z,94920.31
2022-08-16T19:36:07.050Z,94920.38
2022-08-16T19:38:39.681Z,94925.31
2022-08-16T19:41:07.910Z,94926.53
2022-08-16T19:43:35.768Z,94926.03
2022-08-16T19:46:05.106Z,94920.44
2022-08-16T19:48:33.044Z,94920.78
2022-08-16T19:51:01.432Z,94928.41
2022-08-16T19:53:30.758Z,94923.56
2022-08-16T19:55:58.762Z,94930.41
2022-08-16T19:58:26.698Z,94925.22
2022-08-16T20:00:56.423Z,94925.81
2022-08-16T20:03:25.321Z,94925.16
2022-08-16T20:05:53.880Z,94933.31
2022-08-16T20:08:22.473Z,94935.19
2022-08-16T20:10:51.832Z,94929.78
2022-08-16T20:13:22.294Z,94940.78
2022-08-16T20:15:51.253Z,94936.09
2022-08-16T20:18:22.870Z,94940.91
2022-08-16T20:20:55.750Z,94945.91
2022-08-16T20:23:25.210Z,94944.91
2022-08-16T20:25:56.561Z,94947.50
2022-08-16T20:28:39.658Z,94942.41
2022-08-16T20:31:12.980Z,94945.78
2022-08-16T20:33:41.116Z,94948.00
2022-08-16T20:36:16.331Z,94950.97
2022-08-16T20:38:47.168Z,94948.16
2022-08-16T20:41:18.693Z,94956.19
2022-08-16T20:43:47.723Z,94954.94
2022-08-16T20:46:15.877Z,94959.53
2022-08-16T20:48:43.953Z,94964.84
2022-08-16T20:51:12.951Z,94960.84
2022-08-16T20:53:42.197Z,94965.34
2022-08-16T20:56:11.165Z,94965.84
2022-08-16T20:58:40.709Z,94972.47
2022-08-16T21:01:09.454Z,94965.97
2022-08-16T21:03:37.416Z,94974.31
2022-08-16T21:06:05.871Z,94970.31
2022-08-16T21:08:53.183Z,94967.72
2022-08-16T21:11:21.927Z,94965.91
2022-08-16T21:13:51.361Z,94963.84
2022-08-16T21:16:25.469Z,94965.56
2022-08-16T21:18:56.128Z,94964.09
2022-08-16T21:21:23.934Z,94960.06
2022-08-16T21:23:59.422Z,94960.53
2022-08-16T21:26:27.463Z,94967.88
2022-08-16T21:28:58.096Z,94960.56
2022-08-16T21:31:26.408Z,94966.16
2022-08-16T21:33:55.120Z,94959.19
2022-08-16T21:36:35.307Z,94966.50
2022-08-16T21:39:06.192Z,94969.69
2022-08-16T21:41:34.273Z,94969.13
2022-08-16T21:44:03.697Z,94968.66
2022-08-16T21:46:33.681Z,94973.41
2022-08-16T21:49:01.550Z,94974.31
2022-08-16T21:51:29.423Z,94972.94
2022-08-16T21:53:57.318Z,94964.94
2022-08-16T21:56:25.187Z,94973.16
2022-08-16T21:58:53.716Z,94971.28
2022-08-16T22:01:23.773Z,94976.06
2022-08-16T22:04:35.369Z,94973.00
2022-08-16T22:06:41.865Z,94974.00
2022-08-16T22:09:10.983Z,94974.59
2022-08-16T22:11:39.690Z,94976.75
2022-08-16T22:14:07.905Z,94971.47
2022-08-16T22:16:40.059Z,94971.03
2022-08-16T22:19:07.850Z,94976.03
2022-08-16T22:21:36.263Z,94973.16
2022-08-16T22:24:04.764Z,94981.47
2022-08-16T22:26:39.616Z,94977.81
2022-08-16T22:29:12.507Z,94967.25
2022-08-16T22:31:43.489Z,94971.78
2022-08-16T22:34:11.848Z,94961.16
2022-08-16T22:36:40.231Z,94968.19
2022-08-16T22:39:10.100Z,94964.72
2022-08-16T22:41:39.909Z,94964.38
2022-08-16T22:44:08.128Z,94971.59
2022-08-16T22:46:37.622Z,94969.06
2022-08-16T22:49:07.530Z,94969.94
2022-08-16T22:51:37.311Z,94975.81
2022-08-16T22:54:41.422Z,94977.31
2022-08-16T22:56:54.188Z,94973.25
2022-08-16T22:59:24.830Z,94972.78
2022-08-16T23:07:01.043Z,94977.16
2022-08-16T23:09:29.660Z,94964.28
2022-08-16T23:11:57.458Z,94973.97
2022-08-16T23:14:25.230Z,94966.09
2022-08-16T23:16:52.940Z,94972.09
2022-08-16T23:19:20.707Z,94966.47
2022-08-16T23:21:49.358Z,94959.72
2022-08-16T23:24:20.428Z,94961.25
2022-08-16T23:26:49.263Z,94960.44
2022-08-16T23:29:23.973Z,94963.66
2022-08-16T23:31:55.469Z,94954.16
2022-08-16T23:34:23.596Z,94953.03
2022-08-16T23:36:51.441Z,94956.28
2022-08-16T23:39:20.898Z,94949.41
2022-08-16T23:41:48.679Z,94955.88
2022-08-16T23:44:56.665Z,94942.09
2022-08-16T23:47:06.335Z,94948.06
2022-08-16T23:49:58.239Z,94959.34
2022-08-16T23:52:53.549Z,94948.53
2022-08-16T23:55:11.610Z,94949.84
2022-08-16T23:57:39.451Z,94945.72
